»·PEaware :: SWA1338 KSAN-KOAK

SWA1338 :: KSAN-KOAK

FLIGHT INFORMATION

Flight Status: Arrived
Operator:
Southwest Airlines
More flights by this operator :: More flights under this callsign
Pilot: Lauren G. (5641)
Aircraft: BOEING 737-200
(B732)
More flights by this aircraft type
Origin: KSAN San Diego Intl-Lindbergh
United States
Destination: KOAK Metro Oakland Intl
United States
More flights between these airports :: More routes between these airports
Route: +PEBLE6 SLI LAX J1 AVE PXN5
File this flight plan on PilotEdge
Remarks: Slant A
Altitude:
(Current/Filed)
30,000ft
Speed:
(Current/Filed)
462kts
Departed: 20-Jan-18 10:38 AM
Arrived: 20-Jan-18 11:53 AM
Distance/Time
Traveled:
387nm/1:15
Distance/Time
To Go:
Arrived

Flight Plot

Page will automatically refresh every two minutes.

Flight plan parsing failed; only flown route is shown


Map Options




Map Legend


Flown Route
Filed Route
Departure Airport
Arrival Airport
Navaid (VOR, NDB)
Fix

Horizontal Profiles

Position Reports

Time Latitude Longitude Heading Altitude Ground
Speed
20-Jan-18 10:17 32.732524 -117.203399 244 19ft 0kts
20-Jan-18 10:18 32.732524 -117.203399 244 19ft 0kts
20-Jan-18 10:19 32.732524 -117.203399 244 18ft 0kts
20-Jan-18 10:20 32.732524 -117.203399 244 18ft 0kts
20-Jan-18 10:21 32.732524 -117.203399 244 18ft 0kts
20-Jan-18 10:22 32.732524 -117.203399 244 18ft 0kts
20-Jan-18 10:23 32.732524 -117.203399 244 18ft 0kts
20-Jan-18 10:24 32.732524 -117.203399 244 18ft 0kts
20-Jan-18 10:25 32.732524 -117.203399 244 18ft 0kts
20-Jan-18 10:26 32.732524 -117.203399 244 18ft 0kts
20-Jan-18 10:27 32.732524 -117.203399 244 18ft 0kts
20-Jan-18 10:28 32.732524 -117.203399 244 18ft 0kts
20-Jan-18 10:29 32.732634 -117.203147 241 20ft 2kts
20-Jan-18 10:30 32.733011 -117.202630 208 18ft 2kts
20-Jan-18 10:31 32.733463 -117.202663 162 18ft 2kts
20-Jan-18 10:32 32.733928 -117.202638 266 18ft 1kts
20-Jan-18 10:33 32.733927 -117.202504 269 18ft 0kts
20-Jan-18 10:34 32.734086 -117.202616 1 18ft 0kts
20-Jan-18 10:35 32.735304 -117.202144 55 19ft 10kts
20-Jan-18 10:36 32.734533 -117.197964 106 21ft 19kts
20-Jan-18 10:37 32.733033 -117.191771 106 22ft 18kts
20-Jan-18 10:38 32.731754 -117.186395 107 22ft 19kts
20-Jan-18 10:39 32.729937 -117.178980 106 20ft 23kts
20-Jan-18 10:40 32.729514 -117.176678 72 23ft 0kts
20-Jan-18 10:41 32.729514 -117.176678 72 23ft 0kts
20-Jan-18 10:42 32.729514 -117.176678 72 23ft 0kts
20-Jan-18 10:43 32.730291 -117.176207 285 27ft 1kts
20-Jan-18 10:44 32.738794 -117.207195 295 536ft 185kts
20-Jan-18 10:45 32.771102 -117.261953 304 3388ft 215kts
20-Jan-18 10:46 32.807223 -117.321131 304 5833ft 245kts
20-Jan-18 10:47 32.846552 -117.386781 304 8601ft 248kts
20-Jan-18 10:48 32.889181 -117.451055 326 10973ft 256kts
20-Jan-18 10:49 32.953645 -117.493066 318 12283ft 291kts
20-Jan-18 10:50 33.009699 -117.573766 308 13164ft 331kts
20-Jan-18 10:51 33.066884 -117.660891 307 14837ft 345kts
20-Jan-18 10:52 33.113413 -117.733386 308 14959ft 366kts
20-Jan-18 10:53 33.181221 -117.823894 332 14961ft 378kts
20-Jan-18 10:54 33.279988 -117.868510 340 15768ft 371kts
20-Jan-18 10:55 33.375980 -117.905186 340 17586ft 368kts
20-Jan-18 10:56 33.458530 -117.935609 340 19135ft 363kts
20-Jan-18 10:57 33.553159 -117.970262 340 20937ft 360kts
20-Jan-18 10:58 33.646820 -118.004571 339 22451ft 365kts
20-Jan-18 10:59 33.741868 -118.039500 338 23700ft 372kts
20-Jan-18 11:00 33.806753 -118.123500 296 24895ft 361kts
20-Jan-18 11:01 33.848534 -118.224266 295 26104ft 356kts
20-Jan-18 11:02 33.884561 -118.312443 295 26755ft 361kts
20-Jan-18 11:03 33.928492 -118.420549 295 27537ft 365kts
20-Jan-18 11:04 33.997133 -118.509694 318 28352ft 373kts
20-Jan-18 11:05 34.073608 -118.585095 316 29627ft 366kts
20-Jan-18 11:06 34.145772 -118.658823 314 30118ft 365kts
20-Jan-18 11:07 34.218940 -118.736467 315 30117ft 371kts
20-Jan-18 11:08 34.297186 -118.818664 315 30128ft 379kts
20-Jan-18 11:09 34.380403 -118.897269 321 30122ft 388kts
20-Jan-18 11:10 34.467390 -118.974287 321 30124ft 392kts
20-Jan-18 11:11 34.556114 -119.050689 322 30120ft 392kts
20-Jan-18 11:12 34.645236 -119.126860 323 30117ft 395kts
20-Jan-18 11:13 34.735129 -119.203813 323 30114ft 399kts
20-Jan-18 11:14 34.824841 -119.280832 323 30167ft 403kts
20-Jan-18 11:15 34.915696 -119.359020 323 30199ft 407kts
20-Jan-18 11:16 35.006410 -119.438308 318 30189ft 409kts
20-Jan-18 11:17 35.100061 -119.513196 326 30237ft 411kts
20-Jan-18 11:18 35.191014 -119.587292 325 30236ft 416kts
20-Jan-18 11:19 35.264964 -119.649658 325 30232ft 420kts
20-Jan-18 11:20 35.357032 -119.729961 324 30245ft 419kts
20-Jan-18 11:21 35.451842 -119.811276 324 30246ft 416kts
20-Jan-18 11:22 35.545897 -119.891897 324 30242ft 413kts
20-Jan-18 11:23 35.639520 -119.972403 324 30239ft 411kts
20-Jan-18 11:24 35.736276 -120.045588 328 30235ft 409kts
20-Jan-18 11:25 35.817317 -120.105154 328 30233ft 409kts
20-Jan-18 11:26 35.930427 -120.189195 328 30232ft 410kts
20-Jan-18 11:27 36.010977 -120.249286 328 30232ft 411kts
20-Jan-18 11:28 36.106956 -120.321001 328 30232ft 411kts
20-Jan-18 11:29 36.218236 -120.403520 328 30238ft 412kts
20-Jan-18 11:30 36.313337 -120.476336 327 29802ft 386kts
20-Jan-18 11:31 36.388614 -120.533244 328 27784ft 378kts
20-Jan-18 11:32 36.491187 -120.609823 328 25458ft 366kts
20-Jan-18 11:33 36.548334 -120.652454 328 25177ft 348kts
20-Jan-18 11:34 36.622231 -120.709098 328 24224ft 343kts
20-Jan-18 11:35 36.703321 -120.773342 316 24211ft 349kts
20-Jan-18 11:36 36.767665 -120.859696 314 22635ft 338kts
20-Jan-18 11:37 36.839968 -120.931388 320 20919ft 329kts
20-Jan-18 11:38 36.907306 -121.005007 319 19302ft 321kts
20-Jan-18 11:39 36.971449 -121.078786 318 17303ft 306kts
20-Jan-18 11:40 37.032972 -121.150621 318 15184ft 300kts
20-Jan-18 11:41 37.093280 -121.221434 318 13506ft 291kts
20-Jan-18 11:42 37.150176 -121.288107 318 11878ft 288kts
20-Jan-18 11:43 37.206052 -121.354037 318 10760ft 272kts
20-Jan-18 11:44 37.260180 -121.418144 317 9978ft 264kts
20-Jan-18 11:45 37.313590 -121.481553 317 9973ft 266kts
20-Jan-18 11:46 37.367455 -121.545642 317 9971ft 265kts
20-Jan-18 11:47 37.419451 -121.607644 317 9147ft 253kts
20-Jan-18 11:48 37.468997 -121.667120 316 7976ft 246kts
20-Jan-18 11:49 37.518127 -121.726654 317 7978ft 246kts
20-Jan-18 11:50 37.562792 -121.790310 286 7967ft 239kts
20-Jan-18 11:51 37.575193 -121.868754 283 6245ft 230kts
20-Jan-18 11:52 37.586546 -121.942150 282 5611ft 194kts
20-Jan-18 11:53 37.597058 -122.005770 284 4513ft 184kts
20-Jan-18 11:54 37.610196 -122.061866 290 3250ft 165kts
20-Jan-18 11:55 37.630391 -122.108735 306 2474ft 169kts
20-Jan-18 11:56 37.659728 -122.152806 312 1306ft 155kts
20-Jan-18 11:57 37.686310 -122.191732 309 538ft 145kts
20-Jan-18 11:58 37.709017 -122.225614 312 13ft 79kts
20-Jan-18 11:59 37.713511 -122.231174 335 12ft 6kts
20-Jan-18 12:00 37.713545 -122.228450 131 12ft 22kts
20-Jan-18 12:01 37.708446 -122.220848 132 12ft 34kts
20-Jan-18 12:02 37.709958 -122.217201 306 12ft 21kts
20-Jan-18 12:03 37.711164 -122.216507 125 12ft 0kts

Navigation Log

Ident Type
Flight plan parsing failed, navigation log unavailable